CheckWX is a tool to help pilots better visualize weather data.  It is not intended as a substitute for an official pre-flight weather briefing.

20:34:13 UTC

CYSM TAF
Fort Smith Airport
Fort Smith, Canada
TAF CYSM 221738Z 2218/2306 31008KT P6SM SCT250 RMK NXT FCST BY 230000Z

Mar-22@
18:00 UTC

Mar-22 @ 18:00 UTC

Mar-23@
06:00 UTC

Mar-23 @ 06:00 UTC

TAF CYSM 221738Z 2218/2306 31008KT P6SM SCT250 RMK NXT FCST BY 230000Z
Wind
  • 310° at 8 KTS
Cloud Levels
  • Scattered at 25,000' AGL